createdAt,value
2023-05-23T00:02:49.299Z,16.90
2023-05-23T00:07:49.207Z,13.40
2023-05-23T00:12:49.108Z,13.30
2023-05-23T00:17:49.162Z,14.30
2023-05-23T00:22:49.075Z,14.00
2023-05-23T00:27:49.043Z,14.40
2023-05-23T00:32:48.913Z,16.00
2023-05-23T00:37:48.827Z,10.80
2023-05-23T00:42:48.784Z,10.30
2023-05-23T00:47:48.746Z,11.30
2023-05-23T00:52:48.697Z,8.90
2023-05-23T00:57:48.625Z,8.60
2023-05-23T01:02:48.661Z,7.90
2023-05-23T01:07:48.567Z,9.60
2023-05-23T01:12:48.464Z,8.00
2023-05-23T01:17:48.491Z,6.80
2023-05-23T01:22:48.325Z,7.90
2023-05-23T01:27:48.299Z,8.50
2023-05-23T01:32:48.272Z,10.70
2023-05-23T01:37:48.144Z,6.80
2023-05-23T01:42:48.101Z,6.30
2023-05-23T01:47:48.141Z,5.10
2023-05-23T01:52:48.052Z,8.50
2023-05-23T01:57:48.063Z,6.10
2023-05-23T02:02:48.083Z,10.40
2023-05-23T02:07:47.911Z,7.40
2023-05-23T02:12:47.774Z,8.20
2023-05-23T02:17:47.824Z,9.00
2023-05-23T02:22:47.734Z,6.00
2023-05-23T02:27:51.047Z,10.00
2023-05-23T02:32:47.748Z,7.00
2023-05-23T02:37:47.490Z,8.80
2023-05-23T02:42:47.477Z,10.70
2023-05-23T02:47:47.483Z,12.10
2023-05-23T02:52:47.360Z,9.90
2023-05-23T02:57:47.270Z,12.40
2023-05-23T03:02:47.349Z,12.60
2023-05-23T03:07:47.192Z,15.10
2023-05-23T03:12:47.204Z,12.20
2023-05-23T03:17:47.070Z,12.10
2023-05-23T03:22:47.099Z,13.00
2023-05-23T03:27:46.965Z,12.60
2023-05-23T03:32:46.931Z,11.20
2023-05-23T03:37:46.836Z,9.60
2023-05-23T03:42:46.789Z,9.60
2023-05-23T03:47:46.737Z,10.10
2023-05-23T03:52:46.705Z,9.70
2023-05-23T03:57:46.623Z,11.20
2023-05-23T04:02:46.810Z,12.80
2023-05-23T04:07:46.498Z,10.20
2023-05-23T04:12:46.432Z,11.40
2023-05-23T04:17:46.460Z,13.10
2023-05-23T04:22:46.374Z,11.10
2023-05-23T04:27:46.286Z,12.10
2023-05-23T04:32:46.334Z,14.30
2023-05-23T04:37:46.256Z,14.40
2023-05-23T04:42:46.152Z,13.10
2023-05-23T04:47:46.262Z,14.80
2023-05-23T04:52:46.142Z,18.90
2023-05-23T04:57:46.085Z,13.10
2023-05-23T05:02:46.094Z,17.30
2023-05-23T05:07:45.994Z,19.50
2023-05-23T05:12:45.932Z,15.20
2023-05-23T05:17:47.619Z,17.70
2023-05-23T05:22:47.781Z,15.70
2023-05-23T05:27:45.732Z,18.50
2023-05-23T05:32:45.652Z,15.90
2023-05-23T05:37:45.526Z,12.70
2023-05-23T05:42:45.508Z,19.30
2023-05-23T05:47:45.467Z,16.30
2023-05-23T05:52:45.449Z,18.60
2023-05-23T05:57:45.352Z,15.30
2023-05-23T06:02:45.476Z,19.50
2023-05-23T06:07:45.203Z,22.70
2023-05-23T06:12:45.172Z,13.20
2023-05-23T06:17:45.119Z,19.60
2023-05-23T06:22:45.180Z,19.70
2023-05-23T06:27:45.111Z,15.40
2023-05-23T06:32:45.121Z,16.10
2023-05-23T06:37:44.960Z,18.30
2023-05-23T06:42:45.864Z,19.80
2023-05-23T06:47:44.888Z,17.80
2023-05-23T06:52:44.818Z,14.40
2023-05-23T06:57:44.689Z,15.80
2023-05-23T07:02:44.635Z,15.60
2023-05-23T07:07:44.577Z,12.50
2023-05-23T07:12:44.504Z,18.20
2023-05-23T07:17:44.533Z,12.70
2023-05-23T07:22:44.416Z,15.00
2023-05-23T07:27:44.354Z,11.80
2023-05-23T07:32:44.342Z,13.80
2023-05-23T07:37:44.275Z,12.30
2023-05-23T07:42:44.182Z,14.60
2023-05-23T07:47:44.182Z,16.30
2023-05-23T07:52:44.252Z,20.30
2023-05-23T07:57:44.143Z,16.10
2023-05-23T08:02:44.110Z,18.00
2023-05-23T08:07:47.406Z,15.10
2023-05-23T08:12:43.870Z,14.30
2023-05-23T08:17:43.936Z,16.70
2023-05-23T08:22:43.847Z,19.10
2023-05-23T08:27:44.791Z,15.70
2023-05-23T08:32:43.638Z,17.60
2023-05-23T08:37:43.553Z,25.10
2023-05-23T08:42:43.607Z,21.50
2023-05-23T08:47:43.494Z,23.30
2023-05-23T08:52:43.407Z,30.10
2023-05-23T08:57:43.426Z,21.00
2023-05-23T09:02:43.469Z,29.20
2023-05-23T09:07:43.272Z,24.00
2023-05-23T09:12:43.260Z,22.70
2023-05-23T09:17:43.229Z,18.40
2023-05-23T09:22:43.221Z,17.90
2023-05-23T09:27:47.605Z,18.90
2023-05-23T09:32:43.079Z,23.50
2023-05-23T09:37:42.960Z,15.70
2023-05-23T09:42:42.903Z,23.90
2023-05-23T09:47:42.901Z,26.70
2023-05-23T09:52:42.806Z,20.80
2023-05-23T09:57:42.809Z,19.00
2023-05-23T10:02:42.726Z,30.70
2023-05-23T10:07:42.683Z,23.90
2023-05-23T10:12:42.615Z,17.50
2023-05-23T10:17:42.574Z,18.90
2023-05-23T10:22:44.594Z,20.60
2023-05-23T10:27:42.393Z,20.40
2023-05-23T10:32:42.434Z,16.30
2023-05-23T10:37:42.355Z,18.80
2023-05-23T10:42:42.293Z,22.20
2023-05-23T10:47:42.249Z,26.20
2023-05-23T10:52:42.197Z,14.50
2023-05-23T10:57:42.194Z,13.40
2023-05-23T11:02:42.055Z,12.70
2023-05-23T11:07:42.022Z,13.20
2023-05-23T11:12:41.961Z,10.90
2023-05-23T11:17:41.875Z,13.60
2023-05-23T11:22:41.826Z,14.10
2023-05-23T11:27:41.756Z,9.90
2023-05-23T11:32:41.705Z,13.40
2023-05-23T11:37:41.632Z,16.30
2023-05-23T11:42:41.654Z,14.10
2023-05-23T11:47:41.587Z,13.30
2023-05-23T11:52:41.518Z,10.40
2023-05-23T11:57:41.452Z,12.50
2023-05-23T12:02:41.492Z,11.30
2023-05-23T12:07:41.355Z,12.00
2023-05-23T12:12:41.644Z,14.90
2023-05-23T12:17:41.663Z,23.10
2023-05-23T12:22:41.193Z,15.10
2023-05-23T12:27:41.121Z,13.50
2023-05-23T12:32:41.064Z,12.50
2023-05-23T12:37:41.115Z,10.30
2023-05-23T12:42:40.925Z,9.60
2023-05-23T12:47:40.938Z,16.40
2023-05-23T12:52:40.895Z,12.00
2023-05-23T12:57:40.791Z,10.90
2023-05-23T13:02:40.759Z,12.10
2023-05-23T13:07:40.743Z,12.40
2023-05-23T13:12:40.681Z,12.60
2023-05-23T13:17:40.608Z,17.60
2023-05-23T13:22:40.543Z,14.70
2023-05-23T13:27:40.488Z,18.50
2023-05-23T13:32:40.459Z,13.40
2023-05-23T13:37:40.391Z,11.30
2023-05-23T13:42:40.449Z,15.00
2023-05-23T13:47:40.301Z,16.90
2023-05-23T13:52:44.046Z,13.10
2023-05-23T13:57:40.370Z,16.70
2023-05-23T14:02:40.236Z,21.00
2023-05-23T14:07:40.096Z,13.50
2023-05-23T14:12:40.127Z,11.50
2023-05-23T14:17:39.991Z,17.50
2023-05-23T14:22:39.877Z,16.00
2023-05-23T14:27:39.830Z,10.40
2023-05-23T14:32:39.825Z,12.50
2023-05-23T14:37:39.721Z,17.10
2023-05-23T14:42:39.666Z,16.50
2023-05-23T14:47:39.768Z,12.10
2023-05-23T14:52:39.666Z,12.50
2023-05-23T14:57:39.602Z,11.50
2023-05-23T15:02:39.584Z,15.10
2023-05-23T15:07:39.487Z,14.70
2023-05-23T15:12:39.420Z,15.90
2023-05-23T15:17:39.362Z,12.60
2023-05-23T15:22:40.328Z,11.20
2023-05-23T15:27:39.243Z,13.10
2023-05-23T15:32:39.164Z,11.30
2023-05-23T15:37:39.079Z,17.00
2023-05-23T15:42:39.049Z,17.40
2023-05-23T15:47:38.994Z,10.70
2023-05-23T15:52:38.952Z,10.80
2023-05-23T15:57:38.985Z,12.60
2023-05-23T16:02:38.928Z,14.20
2023-05-23T16:07:39.815Z,20.30
2023-05-23T16:12:38.819Z,13.60
2023-05-23T16:17:40.669Z,10.60
2023-05-23T16:22:38.651Z,17.10
2023-05-23T16:27:38.684Z,12.00
2023-05-23T16:32:38.593Z,14.60
2023-05-23T16:37:39.576Z,13.60
2023-05-23T16:42:38.431Z,18.50
2023-05-23T16:47:38.403Z,13.90
2023-05-23T16:52:38.303Z,14.30
2023-05-23T16:57:38.261Z,14.50
2023-05-23T17:02:38.276Z,15.30
2023-05-23T17:07:38.131Z,17.20
2023-05-23T17:12:38.130Z,10.90
2023-05-23T17:17:38.046Z,10.60
2023-05-23T17:22:38.103Z,16.00
2023-05-23T17:27:38.022Z,15.30
2023-05-23T17:32:38.004Z,14.00
2023-05-23T17:37:37.890Z,13.80
2023-05-23T17:42:37.758Z,13.60
2023-05-23T17:47:39.774Z,17.20
2023-05-23T17:52:37.720Z,14.90
2023-05-23T17:57:37.712Z,15.70
2023-05-23T18:02:39.601Z,18.90
2023-05-23T18:07:37.464Z,13.80
2023-05-23T18:12:37.441Z,14.20
2023-05-23T18:17:37.470Z,11.60
2023-05-23T18:22:37.374Z,15.70
2023-05-23T18:27:37.238Z,10.40
2023-05-23T18:32:37.256Z,16.50
2023-05-23T18:37:37.197Z,12.90
2023-05-23T18:42:37.096Z,13.20
2023-05-23T18:47:37.149Z,15.50
2023-05-23T18:52:37.157Z,16.50
2023-05-23T18:57:37.064Z,16.20
2023-05-23T19:02:37.008Z,10.30
2023-05-23T19:07:36.970Z,10.50
2023-05-23T19:12:36.911Z,11.80
2023-05-23T19:17:37.874Z,11.50
2023-05-23T19:22:50.124Z,10.70
2023-05-23T19:27:37.655Z,14.10
2023-05-23T19:32:36.567Z,13.40
2023-05-23T19:37:36.543Z,10.80
2023-05-23T19:42:36.474Z,12.40
2023-05-23T19:47:36.447Z,14.70
2023-05-23T19:52:36.331Z,15.70
2023-05-23T19:57:36.284Z,15.80
2023-05-23T20:02:36.290Z,19.30
2023-05-23T20:07:36.138Z,14.50
2023-05-23T20:12:36.106Z,15.00
2023-05-23T20:17:37.125Z,17.80
2023-05-23T20:22:36.051Z,13.80
2023-05-23T20:27:36.025Z,17.90
2023-05-23T20:32:36.044Z,18.30
2023-05-23T20:37:35.883Z,13.90
2023-05-23T20:42:35.919Z,14.50
2023-05-23T20:47:35.915Z,14.20
2023-05-23T20:52:35.753Z,13.60
2023-05-23T20:57:35.662Z,8.90
2023-05-23T21:02:35.811Z,15.00
2023-05-23T21:07:35.502Z,11.50
2023-05-23T21:12:35.488Z,11.90
2023-05-23T21:17:35.375Z,14.60
2023-05-23T21:22:35.334Z,15.10
2023-05-23T21:27:35.346Z,15.20
2023-05-23T21:32:35.261Z,20.00
2023-05-23T21:37:35.152Z,13.10
2023-05-23T21:42:35.142Z,14.30
2023-05-23T21:47:35.163Z,20.80
2023-05-23T21:52:35.140Z,14.10
2023-05-23T21:57:36.062Z,17.20
2023-05-23T22:02:35.030Z,21.40
2023-05-23T22:07:34.870Z,11.60
2023-05-23T22:12:35.010Z,15.80
2023-05-23T22:17:34.892Z,17.10
2023-05-23T22:22:34.756Z,13.50
2023-05-23T22:27:34.700Z,14.30
2023-05-23T22:32:34.746Z,14.20
2023-05-23T22:37:34.514Z,16.10
2023-05-23T22:42:34.505Z,16.20
2023-05-23T22:47:34.533Z,15.80
2023-05-23T22:52:34.390Z,13.80
2023-05-23T22:57:34.326Z,17.30
2023-05-23T23:02:34.299Z,15.90
2023-05-23T23:07:34.222Z,11.80
2023-05-23T23:12:34.169Z,15.30
2023-05-23T23:17:34.111Z,13.60
2023-05-23T23:22:34.098Z,16.90
2023-05-23T23:27:34.117Z,12.90
2023-05-23T23:32:34.352Z,18.90
2023-05-23T23:37:33.966Z,20.60
2023-05-23T23:42:33.858Z,22.70
2023-05-23T23:47:33.902Z,15.70
2023-05-23T23:52:33.802Z,15.10
2023-05-23T23:57:33.749Z,19.00
